Time;durP1;ratioP1;P1;durP2;ratioP2;P2;SDS_P1;SDS_P2;PMS_P1;PMS_P2;Temp;Humidity;BMP_temperature;BMP_pressure;BME280_temperature;BME280_humidity;BME280_pressure;Samples;Min_cycle;Max_cycle;Signal;HPM_P1;HPM_P2
2022/11/04 00:01:28;;;;;;;8.30;6.25;;;22.00;53.40;;;;;;6090494;23;20492;-60
2022/11/04 00:03:55;;;;;;;8.00;5.82;;;22.00;53.40;;;;;;6085470;23;20113;-60
2022/11/04 00:06:22;;;;;;;7.53;5.47;;;22.00;53.50;;;;;;6091618;23;20395;-60
2022/11/04 00:08:55;;;;;;;9.40;6.40;;;22.00;53.50;;;;;;6089356;23;20352;-61
2022/11/04 00:14:12;;;;;;;8.18;5.78;;;21.90;53.40;;;;;;6090155;23;20078;-60
2022/11/04 00:19:27;;;;;;;6.07;5.07;;;21.90;53.50;;;;;;6090236;23;20029;-61
2022/11/04 00:30:08;;;;;;;7.32;5.43;;;21.90;53.30;;;;;;6089778;23;20069;-62
2022/11/04 00:35:23;;;;;;;7.38;5.63;;;22.00;53.30;;;;;;6085248;23;20062;-60
2022/11/04 00:37:50;;;;;;;7.72;5.97;;;22.00;53.20;;;;;;6089814;23;20050;-60
2022/11/04 00:40:17;;;;;;;6.60;5.43;;;22.00;53.20;;;;;;6090928;23;20029;-60
2022/11/04 00:42:45;;;;;;;6.88;5.85;;;22.00;53.20;;;;;;6089188;23;20097;-60
2022/11/04 00:45:12;;;;;;;7.18;5.95;;;22.00;53.20;;;;;;6091660;23;20053;-60
2022/11/04 00:47:39;;;;;;;8.32;5.75;;;22.00;53.20;;;;;;6091052;23;20093;-60
2022/11/04 00:50:07;;;;;;;8.57;5.20;;;22.00;53.20;;;;;;6091172;23;20397;-61
2022/11/04 00:52:34;;;;;;;8.23;5.95;;;22.00;53.10;;;;;;6090384;23;20018;-60
2022/11/04 00:55:01;;;;;;;6.60;5.15;;;22.00;53.10;;;;;;6091662;23;20492;-60
2022/11/04 00:57:28;;;;;;;6.28;4.97;;;22.00;53.10;;;;;;6090063;23;20025;-60
2022/11/04 00:59:55;;;;;;;7.75;5.88;;;21.90;53.10;;;;;;6089389;23;20476;-60
2022/11/04 01:02:22;;;;;;;7.40;5.22;;;22.00;53.10;;;;;;6088602;23;20133;-60
2022/11/04 01:04:50;;;;;;;7.82;5.80;;;22.00;53.10;;;;;;6090378;23;20023;-60
2022/11/04 01:07:17;;;;;;;7.93;5.80;;;22.00;53.20;;;;;;6084614;23;20265;-60
2022/11/04 01:09:44;;;;;;;6.35;5.07;;;22.00;53.10;;;;;;6089732;23;20033;-60
2022/11/04 01:12:11;;;;;;;8.82;5.57;;;22.00;53.10;;;;;;6091107;23;20097;-60
2022/11/04 01:14:38;;;;;;;7.22;5.88;;;22.00;53.20;;;;;;6089914;23;20030;-60
2022/11/04 01:17:05;;;;;;;8.48;5.30;;;21.90;53.10;;;;;;6091249;23;20025;-60
2022/11/04 01:19:32;;;;;;;8.27;6.03;;;21.90;53.10;;;;;;6090822;23;20026;-61
2022/11/04 01:21:59;;;;;;;7.97;6.20;;;21.90;53.10;;;;;;6090328;23;20097;-60
2022/11/04 01:24:26;;;;;;;7.25;5.03;;;21.90;53.00;;;;;;6089312;23;20400;-60
2022/11/04 01:26:53;;;;;;;7.03;5.53;;;21.90;53.10;;;;;;6090513;23;20040;-60
2022/11/04 01:29:20;;;;;;;6.00;5.20;;;21.90;53.10;;;;;;6090148;23;20492;-60
2022/11/04 01:31:47;;;;;;;7.40;5.70;;;21.90;53.10;;;;;;6089941;23;20229;-61
2022/11/04 01:34:14;;;;;;;6.85;5.30;;;21.90;53.10;;;;;;6090281;23;20045;-60
2022/11/04 01:36:42;;;;;;;7.43;5.65;;;21.90;53.00;;;;;;6090715;23;20023;-60
2022/11/04 01:39:11;;;;;;;7.00;5.28;;;21.90;53.10;;;;;;6084431;23;20101;-60
2022/11/04 01:41:39;;;;;;;6.90;5.43;;;21.90;53.10;;;;;;6089601;23;20488;-62
2022/11/04 01:44:46;;;;;;;6.45;5.35;;;21.90;53.00;;;;;;6091238;23;20018;-61
2022/11/04 01:47:22;;;;;;;8.13;5.63;;;21.90;53.00;;;;;;6090495;23;20022;-60
2022/11/04 01:50:05;;;;;;;7.43;5.60;;;21.90;53.10;;;;;;6111806;23;20026;-60
2022/11/04 01:52:59;;;;;;;8.32;5.32;;;21.90;53.10;;;;;;6089537;23;20018;-60
2022/11/04 01:55:31;;;;;;;9.95;5.70;;;21.90;53.00;;;;;;6090420;23;20401;-61
2022/11/04 01:58:05;;;;;;;7.03;5.07;;;21.90;53.10;;;;;;6090971;23;20018;-61
2022/11/04 02:00:32;;;;;;;7.75;5.40;;;21.90;53.10;;;;;;6089900;23;20032;-57
2022/11/04 02:03:25;;;;;;;7.50;5.40;;;21.90;53.10;;;;;;6112961;23;20041;-61
2022/11/04 02:05:53;;;;;;;6.70;5.43;;;21.90;53.10;;;;;;6089091;23;20062;-60
2022/11/04 02:08:21;;;;;;;8.02;6.20;;;21.90;53.10;;;;;;6089085;23;20024;-60
2022/11/04 02:10:57;;;;;;;7.60;5.78;;;21.90;53.20;;;;;;6084841;23;20022;-60
2022/11/04 02:13:25;;;;;;;7.15;5.38;;;21.90;53.20;;;;;;6090373;23;20019;-60
2022/11/04 02:16:18;;;;;;;6.45;4.85;;;21.90;53.20;;;;;;6089926;23;20394;-60
2022/11/04 02:19:21;;;;;;;7.93;5.60;;;21.90;53.30;;;;;;6089601;23;20027;-60
2022/11/04 02:22:19;;;;;;;7.47;5.30;;;21.90;53.20;;;;;;6089547;23;20162;-60
2022/11/04 02:25:25;;;;;;;6.82;5.38;;;21.80;53.20;;;;;;6089500;23;20126;-60
2022/11/04 02:28:30;;;;;;;7.95;5.90;;;21.90;53.20;;;;;;6087992;23;20556;-60
2022/11/04 02:31:28;;;;;;;6.35;5.28;;;21.80;53.20;;;;;;6088384;23;20054;-60
2022/11/04 02:34:29;;;;;;;7.55;5.65;;;21.80;53.20;;;;;;6089810;23;20080;-60
2022/11/04 02:37:17;;;;;;;6.47;5.60;;;21.90;53.20;;;;;;6090099;23;20089;-61
2022/11/04 02:39:59;;;;;;;6.50;5.53;;;21.90;53.10;;;;;;6088763;23;20026;-60
2022/11/04 02:42:44;;;;;;;9.38;5.90;;;21.90;53.00;;;;;;6087682;23;20034;-60
2022/11/04 02:45:32;;;;;;;5.78;5.10;;;21.90;52.90;;;;;;6090450;23;20093;-60
2022/11/04 02:48:06;;;;;;;7.60;5.78;;;21.90;52.90;;;;;;6088629;23;20106;-60
2022/11/04 02:50:41;;;;;;;7.95;5.80;;;21.90;52.90;;;;;;6088296;23;20105;-60
2022/11/04 02:53:28;;;;;;;8.95;6.20;;;21.90;52.90;;;;;;6090210;23;20029;-60
2022/11/04 02:55:57;;;;;;;6.15;5.07;;;21.90;52.80;;;;;;6089553;23;20023;-61
2022/11/04 02:58:33;;;;;;;6.47;5.05;;;21.90;52.80;;;;;;6089737;23;20101;-60
2022/11/04 03:01:03;;;;;;;7.93;5.72;;;21.90;52.80;;;;;;6088944;23;20057;-61
2022/11/04 03:03:43;;;;;;;7.40;5.63;;;21.90;52.80;;;;;;6089492;23;20023;-61
2022/11/04 03:06:13;;;;;;;6.32;5.47;;;21.90;52.80;;;;;;6090642;23;20078;-60
2022/11/04 03:08:46;;;;;;;7.43;5.72;;;21.90;52.70;;;;;;6091758;23;20018;-60
2022/11/04 03:11:17;;;;;;;8.52;5.47;;;21.90;52.70;;;;;;6089564;23;20054;-60
2022/11/04 03:14:06;;;;;;;6.25;5.07;;;21.90;52.70;;;;;;6091225;23;20022;-60
2022/11/04 03:16:43;;;;;;;9.10;6.17;;;21.90;52.70;;;;;;6107672;23;20465;-60
2022/11/04 03:19:31;;;;;;;7.03;5.32;;;21.90;52.80;;;;;;6090728;23;20028;-61
2022/11/04 03:22:19;;;;;;;10.63;6.70;;;21.90;52.70;;;;;;6090518;23;20022;-60
2022/11/04 03:24:48;;;;;;;8.45;6.60;;;21.90;52.70;;;;;;6091379;23;20094;-60
2022/11/04 03:27:33;;;;;;;7.95;5.63;;;21.90;52.70;;;;;;6089961;23;20029;-60
2022/11/04 03:30:08;;;;;;;8.75;6.30;;;21.90;52.70;;;;;;6091630;23;20022;-60
2022/11/04 03:33:00;;;;;;;8.10;5.97;;;21.90;52.80;;;;;;6091429;23;20018;-61
2022/11/04 03:35:27;;;;;;;8.70;5.80;;;21.90;52.70;;;;;;6091126;23;20022;-60
2022/11/04 03:37:55;;;;;;;7.32;5.78;;;21.90;52.70;;;;;;6090552;23;20045;-60
2022/11/04 03:40:23;;;;;;;7.70;6.43;;;21.90;52.70;;;;;;6089912;23;20026;-61
2022/11/04 03:43:05;;;;;;;6.45;5.25;;;21.90;52.70;;;;;;6090696;23;20032;-61
2022/11/04 03:45:33;;;;;;;8.82;5.75;;;21.90;52.70;;;;;;6089512;23;20018;-61
2022/11/04 03:48:00;;;;;;;7.50;5.53;;;21.90;52.70;;;;;;6084813;23;20029;-61
2022/11/04 03:50:34;;;;;;;8.38;6.47;;;21.90;52.60;;;;;;6091385;23;20026;-60
2022/11/04 03:53:01;;;;;;;8.10;6.32;;;21.90;52.60;;;;;;6091633;23;20345;-60
2022/11/04 03:55:50;;;;;;;7.00;5.35;;;21.90;52.60;;;;;;6090396;23;20030;-61
2022/11/04 03:58:42;;;;;;;6.45;5.55;;;21.90;52.60;;;;;;6091767;23;20023;-60
2022/11/04 04:01:37;;;;;;;8.02;6.53;;;21.90;52.60;;;;;;6087913;23;20022;-61
2022/11/04 04:04:21;;;;;;;7.15;5.80;;;21.90;52.60;;;;;;6090224;23;20023;-60
2022/11/04 04:06:52;;;;;;;7.15;5.57;;;21.90;52.60;;;;;;6091202;23;20029;-60
2022/11/04 04:09:21;;;;;;;;;;;21.90;52.60;;;;;;6089188;23;20101;-60
2022/11/04 04:11:57;;;;;;;9.40;5.72;;;21.90;52.60;;;;;;6089645;23;19932;-60
2022/11/04 04:14:40;;;;;;;8.75;6.15;;;21.90;52.60;;;;;;6088168;23;20392;-60
2022/11/04 04:17:20;;;;;;;10.07;6.45;;;21.90;52.60;;;;;;6089704;23;20102;-60
2022/11/04 04:20:08;;;;;;;8.57;6.45;;;21.90;52.60;;;;;;6083640;23;20022;-60
2022/11/04 04:22:41;;;;;;;7.13;5.78;;;21.90;52.50;;;;;;6089783;23;20019;-57
2022/11/04 04:28:00;;;;;;;7.03;5.47;;;21.90;52.60;;;;;;6090677;23;20022;-61
2022/11/04 04:30:28;;;;;;;8.05;6.68;;;21.90;52.60;;;;;;6091372;23;20023;-61
2022/11/04 04:32:59;;;;;;;7.60;5.60;;;21.90;52.60;;;;;;6088989;23;20341;-60
2022/11/04 04:35:42;;;;;;;8.85;6.25;;;21.90;52.70;;;;;;6064625;23;20453;-60
2022/11/04 04:47:18;;;;;;;7.95;5.90;;;21.90;52.70;;;;;;6089158;23;20026;-60
2022/11/04 04:49:55;;;;;;;8.55;6.30;;;21.90;52.70;;;;;;6089582;23;20370;-61
2022/11/04 04:52:25;;;;;;;8.90;6.07;;;21.90;52.60;;;;;;6084832;23;20042;-61
2022/11/04 04:54:52;;;;;;;7.10;5.47;;;21.90;52.50;;;;;;6090994;23;20026;-61
2022/11/04 04:57:19;;;;;;;8.75;6.57;;;21.90;52.50;;;;;;6089301;23;20557;-62
2022/11/04 04:59:47;;;;;;;9.30;6.20;;;21.90;52.50;;;;;;6090289;23;20045;-61
2022/11/04 05:02:14;;;;;;;10.10;6.43;;;21.90;52.40;;;;;;6090140;23;20396;-61
2022/11/04 05:04:41;;;;;;;8.77;6.15;;;21.90;52.40;;;;;;6090975;23;20022;-60
2022/11/04 05:07:08;;;;;;;10.45;6.90;;;21.90;52.40;;;;;;6064320;23;20353;-60
2022/11/04 05:09:36;;;;;;;8.45;6.35;;;21.90;52.40;;;;;;6090574;23;20030;-60
2022/11/04 05:12:03;;;;;;;8.23;6.07;;;21.90;52.40;;;;;;6087491;23;20026;-60
2022/11/04 05:14:30;;;;;;;7.53;6.05;;;21.90;52.40;;;;;;6090965;23;20025;-61
2022/11/04 05:16:58;;;;;;;9.05;6.80;;;21.90;52.40;;;;;;6091543;23;20033;-60
2022/11/04 05:19:25;;;;;;;9.35;6.95;;;21.90;52.40;;;;;;6091694;23;20448;-60
2022/11/04 05:21:52;;;;;;;8.95;6.05;;;21.90;52.40;;;;;;6090239;23;20027;-60
2022/11/04 05:24:19;;;;;;;8.75;6.57;;;21.90;52.40;;;;;;6084586;23;20019;-60
2022/11/04 05:26:46;;;;;;;10.00;6.75;;;21.90;52.30;;;;;;6091092;23;20055;-60
2022/11/04 05:29:13;;;;;;;8.43;6.38;;;21.90;52.40;;;;;;6089437;23;20028;-60
2022/11/04 05:31:45;;;;;;;10.13;6.47;;;21.90;52.40;;;;;;6090209;23;20033;-60
2022/11/04 05:34:13;;;;;;;10.20;7.25;;;21.90;52.40;;;;;;6090963;23;20506;-60
2022/11/04 05:36:40;;;;;;;11.85;8.20;;;21.90;52.30;;;;;;6089504;23;20022;-57
2022/11/04 05:39:12;;;;;;;12.27;7.80;;;21.90;52.20;;;;;;6090523;23;20026;-60
2022/11/04 05:41:39;;;;;;;15.07;8.77;;;21.90;52.10;;;;;;6088642;23;20026;-60
2022/11/04 05:44:08;;;;;;;13.23;8.60;;;21.90;52.00;;;;;;6090411;23;20041;-61
2022/11/04 05:46:35;;;;;;;13.15;8.70;;;21.90;51.90;;;;;;6089502;23;20111;-60
2022/11/04 05:49:02;;;;;;;14.23;8.88;;;21.90;51.80;;;;;;6090571;23;20322;-61
2022/11/04 05:51:30;;;;;;;13.68;8.23;;;21.90;51.70;;;;;;6089993;23;20492;-60
2022/11/04 05:53:57;;;;;;;12.48;8.15;;;21.90;51.70;;;;;;6089713;23;20018;-60
2022/11/04 05:56:24;;;;;;;12.85;9.43;;;21.90;51.70;;;;;;6083791;23;20453;-61
2022/11/04 05:58:51;;;;;;;14.32;9.45;;;21.90;51.70;;;;;;6090285;23;20046;-60
2022/11/04 06:01:32;;;;;;;15.57;8.75;;;21.90;51.80;;;;;;6065506;23;20380;-60
2022/11/04 06:04:00;;;;;;;13.70;9.68;;;21.90;51.80;;;;;;6065864;23;20449;-60
2022/11/04 06:06:30;;;;;;;14.75;9.23;;;21.90;51.70;;;;;;6089456;23;20029;-60
2022/11/04 06:08:58;;;;;;;15.30;9.95;;;21.90;51.70;;;;;;6085519;23;20026;-58
2022/11/04 06:11:27;;;;;;;15.98;9.55;;;21.90;51.70;;;;;;6089992;23;20019;-57
2022/11/04 06:13:55;;;;;;;15.73;10.25;;;21.90;51.60;;;;;;6094358;23;20029;-57
2022/11/04 06:16:23;;;;;;;15.88;9.73;;;21.90;51.50;;;;;;6092921;23;20025;-59
2022/11/04 06:18:51;;;;;;;16.45;9.98;;;21.90;51.60;;;;;;6095545;23;20029;-63
2022/11/04 06:21:28;;;;;;;17.80;9.77;;;21.90;51.80;;;;;;6095205;23;20022;-58
2022/11/04 06:23:56;;;;;;;17.58;10.18;;;21.90;51.80;;;;;;6084342;23;20033;-58
2022/11/04 06:26:26;;;;;;;14.98;9.88;;;21.90;51.80;;;;;;6094895;23;20026;-58
2022/11/04 06:28:55;;;;;;;19.00;11.38;;;21.90;51.80;;;;;;6095388;23;20023;-58
2022/11/04 06:31:22;;;;;;;16.95;9.63;;;21.90;51.80;;;;;;6095067;23;20051;-58
2022/11/04 06:33:49;;;;;;;19.38;10.27;;;22.00;52.40;;;;;;6095068;23;20019;-57
2022/11/04 06:36:17;;;;;;;16.65;10.02;;;22.00;51.80;;;;;;6095683;23;20476;-58
2022/11/04 06:43:03;;;;;;;16.17;10.30;;;22.10;51.70;;;;;;6094932;23;20022;-59
2022/11/04 06:45:30;;;;;;;17.77;10.40;;;22.10;51.50;;;;;;6094581;23;20344;-62
2022/11/04 06:47:57;;;;;;;18.40;10.07;;;22.10;51.30;;;;;;6096217;23;20023;-58
2022/11/04 06:50:24;;;;;;;17.20;10.57;;;22.10;51.10;;;;;;6096723;23;20029;-62
2022/11/04 06:52:51;;;;;;;22.90;10.13;;;22.20;51.00;;;;;;6095855;23;20081;-59
2022/11/04 06:55:19;;;;;;;16.48;10.23;;;22.20;50.80;;;;;;6096622;23;20349;-59
2022/11/04 06:58:37;;;;;;;17.00;10.93;;;22.20;50.80;;;;;;6097794;23;20026;-58
2022/11/04 07:01:19;;;;;;;16.67;10.18;;;22.30;51.00;;;;;;6090018;23;20019;-58
2022/11/04 07:03:53;;;;;;;18.10;10.60;;;22.30;51.20;;;;;;6119560;23;20347;-58
2022/11/04 07:06:55;;;;;;;14.85;10.18;;;22.40;51.40;;;;;;6096263;23;20105;-58
2022/11/04 07:09:22;;;;;;;16.73;10.57;;;22.40;51.50;;;;;;6095890;23;20027;-58
2022/11/04 07:11:49;;;;;;;15.57;10.00;;;22.50;51.70;;;;;;6096698;23;20018;-59
2022/11/04 07:14:16;;;;;;;15.85;9.73;;;22.50;51.70;;;;;;6096613;23;20083;-60
2022/11/04 07:16:56;;;;;;;19.80;10.63;;;22.60;51.70;;;;;;6096481;23;20022;-59
2022/11/04 07:19:32;;;;;;;16.65;9.90;;;22.60;51.50;;;;;;6096490;23;20023;-59
2022/11/04 07:21:59;;;;;;;20.13;10.73;;;22.60;51.30;;;;;;6118553;23;20026;-59
2022/11/04 07:24:26;;;;;;;18.98;10.88;;;22.70;51.20;;;;;;6095751;23;20018;-60
2022/11/04 07:26:55;;;;;;;15.73;9.82;;;22.70;51.00;;;;;;6070144;23;20037;-59
2022/11/04 07:29:24;;;;;;;17.85;10.15;;;22.80;50.90;;;;;;6096426;23;20026;-59
2022/11/04 07:31:51;;;;;;;17.83;10.65;;;22.80;50.70;;;;;;6095940;23;20535;-63
2022/11/04 07:38:19;;;;;;;;;;;22.90;50.70;;;;;;6089800;23;20507;-59
2022/11/04 07:40:46;;;;;;;17.77;9.98;;;22.90;50.50;;;;;;6095763;23;19928;-58
2022/11/04 07:43:14;;;;;;;18.45;10.55;;;22.90;50.40;;;;;;6095764;23;20022;-63
2022/11/04 07:45:42;;;;;;;18.15;10.32;;;22.90;50.30;;;;;;6070477;23;20023;-59
2022/11/04 07:48:09;;;;;;;16.20;9.98;;;22.90;50.30;;;;;;6096132;23;20032;-60
2022/11/04 07:50:40;;;;;;;16.20;10.27;;;23.00;50.30;;;;;;6096179;23;20475;-60
2022/11/04 07:53:07;;;;;;;;;;;23.00;50.30;;;;;;6071634;23;20022;-60
2022/11/04 07:55:37;;;;;;;19.75;10.57;;;23.00;50.20;;;;;;6096095;23;19924;-62
2022/11/04 07:58:09;;;;;;;22.35;10.15;;;23.00;50.10;;;;;;6095529;23;20018;-62
2022/11/04 08:00:36;;;;;;;18.13;10.45;;;23.00;49.90;;;;;;6095827;23;20041;-61
2022/11/04 08:07:22;;;;;;;17.65;10.52;;;23.10;49.50;;;;;;6107471;22;20041;-59
2022/11/04 08:09:49;;;;;;;15.88;10.32;;;23.10;49.20;;;;;;6097059;23;20386;-61
2022/11/04 08:12:16;;;;;;;16.85;10.40;;;23.10;49.10;;;;;;6092310;23;20022;-59
2022/11/04 08:14:43;;;;;;;19.13;10.10;;;23.10;49.00;;;;;;6095973;23;20023;-62
2022/11/04 08:17:10;;;;;;;16.38;11.15;;;23.10;48.90;;;;;;6096390;23;20022;-63
2022/11/04 08:19:37;;;;;;;14.23;10.20;;;23.10;48.80;;;;;;6096956;23;20033;-61
2022/11/04 08:22:26;;;;;;;18.30;11.80;;;23.10;48.80;;;;;;6070896;23;20030;-59
2022/11/04 08:25:17;;;;;;;18.10;10.35;;;23.10;48.70;;;;;;6091699;23;20014;-62
2022/11/04 08:31:41;;;;;;;16.40;10.75;;;23.00;48.60;;;;;;6090536;23;20028;-61
2022/11/04 08:34:08;;;;;;;18.27;11.60;;;23.10;48.60;;;;;;6041893;23;20025;-58
2022/11/04 08:57:08;;;;;;;16.92;11.02;;;23.00;48.30;;;;;;6119641;23;20021;-58
2022/11/04 09:00:31;;;;;;;16.33;10.38;;;23.00;48.30;;;;;;6121548;23;20026;-58
2022/11/04 09:07:43;;;;;;;18.75;11.35;;;23.00;48.10;;;;;;6118531;23;20018;-61
2022/11/04 09:10:10;;;;;;;17.95;11.25;;;23.00;48.20;;;;;;6125747;23;20321;-58
2022/11/04 09:12:37;;;;;;;18.27;11.90;;;23.00;48.20;;;;;;6125734;23;20044;-59
2022/11/04 09:19:17;;;;;;;18.20;10.77;;;23.00;48.20;;;;;;6119670;23;20101;-61
2022/11/04 09:21:44;;;;;;;19.23;11.43;;;23.10;48.20;;;;;;6124674;23;20026;-58
2022/11/04 09:24:12;;;;;;;17.58;11.45;;;23.10;48.20;;;;;;6125232;23;20096;-61
2022/11/04 09:26:41;;;;;;;22.35;11.65;;;23.10;48.30;;;;;;6100280;23;20026;-58
2022/11/04 09:29:08;;;;;;;19.70;11.32;;;23.10;48.90;;;;;;6125243;23;20025;-57
2022/11/04 09:31:36;;;;;;;19.65;12.50;;;23.10;48.60;;;;;;6125518;23;20026;-59
2022/11/04 09:34:03;;;;;;;19.25;11.63;;;23.10;48.90;;;;;;6125528;23;20033;-59
2022/11/04 09:36:30;;;;;;;19.23;12.10;;;23.10;49.10;;;;;;6125453;23;20343;-59
2022/11/04 09:38:58;;;;;;;20.42;12.30;;;23.10;49.00;;;;;;6124782;23;20025;-59
2022/11/04 09:41:48;;;;;;;18.23;11.90;;;23.10;49.10;;;;;;6124469;23;20459;-58
2022/11/04 09:44:23;;;;;;;21.75;12.15;;;23.10;49.00;;;;;;6124835;23;20044;-58
2022/11/04 09:46:53;;;;;;;19.67;12.55;;;23.10;49.00;;;;;;6125110;23;20456;-59
2022/11/04 09:49:22;;;;;;;20.40;11.43;;;23.10;49.00;;;;;;6126544;23;20022;-60
2022/11/04 09:51:50;;;;;;;19.90;11.82;;;23.10;49.00;;;;;;6125463;23;20022;-59
2022/11/04 09:54:24;;;;;;;19.23;12.50;;;23.20;49.00;;;;;;6125985;23;20321;-59
2022/11/04 09:56:55;;;;;;;18.45;11.18;;;23.20;49.00;;;;;;6125457;23;20030;-59
2022/11/04 10:00:13;;;;;;;20.48;11.80;;;23.20;49.10;;;;;;6124190;23;20028;-59
2022/11/04 10:03:20;;;;;;;25.33;12.50;;;23.20;49.10;;;;;;6124970;23;20026;-59
2022/11/04 10:06:21;;;;;;;17.50;10.98;;;23.30;49.20;;;;;;6107681;23;20018;-59
2022/11/04 10:13:56;;;;;;;20.20;12.05;;;23.30;49.70;;;;;;6118252;23;20067;-59
2022/11/04 10:20:23;;;;;;;;;;;23.30;50.10;;;;;;6125528;23;20083;-62
2022/11/04 10:23:15;;;;;;;21.67;12.43;;;23.30;50.10;;;;;;6125018;23;19917;-59
2022/11/04 10:26:07;;;;;;;20.95;12.38;;;23.30;50.10;;;;;;6125339;23;20022;-63
2022/11/04 10:28:42;;;;;;;20.50;12.57;;;23.40;50.10;;;;;;6098414;23;20172;-59
2022/11/04 10:31:18;;;;;;;18.58;12.05;;;23.30;50.00;;;;;;6124695;23;20028;-63
2022/11/04 10:33:52;;;;;;;23.10;12.93;;;23.40;50.00;;;;;;6124716;23;20025;-63
2022/11/04 10:36:21;;;;;;;20.52;13.35;;;23.40;50.00;;;;;;6123938;23;20022;-61
2022/11/04 10:38:54;;;;;;;20.55;12.50;;;23.40;49.90;;;;;;6124197;23;20025;-61
2022/11/04 10:42:36;;;;;;;18.30;11.90;;;23.40;49.90;;;;;;6123544;23;20018;-62
2022/11/04 10:51:54;;;;;;;18.13;11.63;;;23.40;49.70;;;;;;6126050;22;19995;-59
2022/11/04 10:54:21;;;;;;;;;;;23.40;49.80;;;;;;6099184;23;20022;-63
2022/11/04 10:56:51;;;;;;;19.70;11.55;;;23.40;49.80;;;;;;6123644;23;19917;-60
2022/11/04 10:59:33;;;;;;;22.02;12.48;;;23.40;49.90;;;;;;6098688;23;20091;-60
2022/11/04 11:02:01;;;;;;;23.35;12.90;;;23.40;49.80;;;;;;6123669;23;20026;-63
2022/11/04 11:04:32;;;;;;;24.30;12.70;;;23.40;49.80;;;;;;6123870;23;20513;-61
2022/11/04 11:07:03;;;;;;;20.15;13.25;;;23.40;49.80;;;;;;6123627;23;20029;-60
2022/11/04 11:09:34;;;;;;;19.63;12.35;;;23.40;50.00;;;;;;6123350;23;20028;-60
2022/11/04 11:15:34;;;;;;;22.45;12.98;;;23.40;49.70;;;;;;6131834;22;20025;-64
2022/11/04 11:18:19;;;;;;;19.75;12.70;;;23.40;49.50;;;;;;6064112;23;20023;-60
2022/11/04 11:21:52;;;;;;;19.73;11.15;;;23.40;49.50;;;;;;6063851;23;20031;-62
2022/11/04 11:33:12;;;;;;;18.02;12.02;;;23.40;49.30;;;;;;6066355;23;20057;-60
2022/11/04 11:35:45;;;;;;;18.25;11.68;;;23.40;49.30;;;;;;6066825;23;20037;-59
2022/11/04 11:38:20;;;;;;;19.75;12.05;;;23.30;49.20;;;;;;6066931;23;20023;-63
2022/11/04 11:51:05;;;;;;;22.60;13.45;;;23.30;49.50;;;;;;6121004;23;20332;-60
2022/11/04 11:53:35;;;;;;;19.70;12.43;;;23.30;49.60;;;;;;6124999;23;20022;-62
2022/11/04 11:56:37;;;;;;;;;;;23.40;49.70;;;;;;6125517;23;20018;-60
2022/11/04 11:59:46;;;;;;;18.75;12.68;;;23.40;49.80;;;;;;6122423;23;19959;-63
2022/11/04 12:03:01;;;;;;;20.63;12.35;;;23.30;49.80;;;;;;6124315;23;20026;-63
2022/11/04 12:05:41;;;;;;;17.60;12.13;;;23.40;49.90;;;;;;6099631;23;20022;-60
2022/11/04 12:19:26;;;;;;;18.27;12.73;;;23.40;50.10;;;;;;6128125;22;20076;-61
2022/11/04 12:25:49;;;;;;;23.10;13.20;;;23.50;50.20;;;;;;6119259;23;20070;-60
2022/11/04 12:32:27;;;;;;;19.65;12.25;;;23.60;50.10;;;;;;6124497;23;20029;-62
2022/11/04 12:49:48;;;;;;;21.77;12.77;;;23.60;50.20;;;;;;5134136;27;20771;-59
2022/11/04 12:52:44;;;;;;;18.33;11.23;;;23.70;50.30;;;;;;5132005;28;20048;-59
2022/11/04 12:59:42;;;;;;;19.17;12.25;;;23.60;50.00;;;;;;5108135;22;20082;-60
2022/11/04 13:02:19;;;;;;;19.55;10.98;;;23.70;50.00;;;;;;5079880;28;20083;-58
2022/11/04 13:05:14;;;;;;;21.02;12.10;;;23.70;50.00;;;;;;5092493;28;20478;-59
2022/11/04 13:08:28;;;;;;;18.48;11.98;;;23.70;50.10;;;;;;5073001;28;20048;-61
2022/11/04 13:11:21;;;;;;;17.63;12.13;;;23.70;50.00;;;;;;5071821;28;20493;-62
2022/11/04 13:20:58;;;;;;;16.50;11.10;;;23.70;50.00;;;;;;5113036;22;20044;-64
2022/11/04 13:26:44;;;;;;;16.42;11.23;;;23.60;50.00;;;;;;5099281;22;20139;-62
2022/11/04 13:29:20;;;;;;;16.85;12.02;;;23.60;50.00;;;;;;5092041;28;20142;-60
2022/11/04 13:32:27;;;;;;;20.83;13.05;;;23.60;50.00;;;;;;5072628;28;20052;-61
2022/11/04 13:38:07;;;;;;;23.08;11.88;;;23.50;49.90;;;;;;5507766;22;20051;-63
2022/11/04 13:40:51;;;;;;;17.40;10.95;;;23.50;49.90;;;;;;5087472;28;20043;-64
2022/11/04 13:43:40;;;;;;;20.27;11.57;;;23.50;49.90;;;;;;5082163;28;20052;-64
2022/11/04 13:46:30;;;;;;;15.82;11.73;;;23.50;50.00;;;;;;5078167;28;20040;-63
2022/11/04 13:49:19;;;;;;;17.77;11.13;;;23.50;50.00;;;;;;5072724;28;20487;-63
2022/11/04 13:56:21;;;;;;;19.02;11.68;;;23.50;50.10;;;;;;5056627;28;20094;-63
2022/11/04 13:59:21;;;;;;;22.52;11.45;;;23.50;50.20;;;;;;5058227;28;20075;-62
2022/11/04 14:01:48;;;;;;;19.17;11.77;;;23.40;50.40;;;;;;5056878;28;20057;-62
2022/11/04 14:04:27;;;;;;;16.65;11.05;;;23.40;50.50;;;;;;5058622;28;20511;-63
2022/11/04 14:07:07;;;;;;;17.40;12.25;;;23.40;50.50;;;;;;5058895;28;20048;-63
2022/11/04 14:09:48;;;;;;;;;;;23.40;50.60;;;;;;5059240;28;20048;-63
2022/11/04 14:12:24;;;;;;;17.35;11.93;;;23.40;50.90;;;;;;5057697;28;19921;-62
2022/11/04 14:15:04;;;;;;;17.00;11.02;;;23.40;51.20;;;;;;5058303;28;20045;-62
2022/11/04 14:17:58;;;;;;;18.55;10.85;;;23.40;51.60;;;;;;5058451;28;20049;-59
2022/11/04 14:20:30;;;;;;;19.58;12.07;;;23.40;51.90;;;;;;5058362;28;20041;-63
2022/11/04 14:23:00;;;;;;;16.63;10.93;;;23.40;52.10;;;;;;5058889;28;20540;-62
2022/11/04 14:25:37;;;;;;;22.35;11.38;;;23.40;52.40;;;;;;5058687;28;20056;-62
2022/11/04 14:28:24;;;;;;;20.33;11.77;;;23.40;52.50;;;;;;5058751;28;20049;-62
2022/11/04 14:30:57;;;;;;;18.58;12.32;;;23.40;52.60;;;;;;5058785;28;20410;-63
2022/11/04 14:33:35;;;;;;;20.40;13.77;;;23.40;52.60;;;;;;5058943;28;20049;-59
2022/11/04 14:36:26;;;;;;;21.00;13.55;;;23.40;52.60;;;;;;5058845;28;20505;-63
2022/11/04 14:39:19;;;;;;;17.83;12.15;;;23.30;52.50;;;;;;5059414;28;20049;-63
2022/11/04 14:41:56;;;;;;;20.27;12.95;;;23.30;52.50;;;;;;5058606;28;20056;-62
2022/11/04 14:44:37;;;;;;;20.98;12.63;;;23.30;52.40;;;;;;5058521;28;20055;-63
2022/11/04 14:47:19;;;;;;;19.95;13.02;;;23.30;52.40;;;;;;5057461;28;20056;-62
2022/11/04 14:49:49;;;;;;;23.38;13.45;;;23.30;52.40;;;;;;5058526;28;20049;-63
2022/11/04 14:52:23;;;;;;;20.48;12.75;;;23.30;52.30;;;;;;5058031;28;20051;-59
2022/11/04 14:54:57;;;;;;;19.75;13.52;;;23.20;52.30;;;;;;5058022;28;20060;-63
2022/11/04 14:57:24;;;;;;;19.38;12.75;;;23.20;52.30;;;;;;5058247;28;20067;-63
2022/11/04 14:59:52;;;;;;;23.58;13.02;;;23.10;52.20;;;;;;5057057;28;20045;-63
2022/11/04 15:02:27;;;;;;;20.95;12.38;;;23.10;52.20;;;;;;5039866;28;20122;-63
2022/11/04 15:04:57;;;;;;;20.42;13.07;;;23.10;52.20;;;;;;5058324;28;20477;-63
2022/11/04 15:07:38;;;;;;;19.95;13.30;;;23.00;52.20;;;;;;5058429;28;20048;-63
2022/11/04 15:10:25;;;;;;;19.40;12.10;;;23.00;52.20;;;;;;5057798;28;20048;-62
2022/11/04 15:12:59;;;;;;;20.85;12.75;;;23.00;52.30;;;;;;5058257;28;20486;-63
2022/11/04 15:15:44;;;;;;;21.80;13.30;;;23.00;52.40;;;;;;5058179;28;20049;-63
2022/11/04 15:18:17;;;;;;;19.60;11.73;;;23.00;52.40;;;;;;5057729;28;20055;-63
2022/11/04 15:20:53;;;;;;;19.70;12.82;;;22.90;52.50;;;;;;5057884;28;20060;-62
2022/11/04 15:23:30;;;;;;;19.70;13.18;;;22.90;52.50;;;;;;5057816;28;20097;-63
2022/11/04 15:25:58;;;;;;;18.73;11.57;;;22.90;52.50;;;;;;5057985;28;20398;-63
2022/11/04 15:28:29;;;;;;;17.38;11.68;;;22.90;52.60;;;;;;5057913;28;20045;-62
2022/11/04 15:31:16;;;;;;;18.95;11.85;;;22.90;52.60;;;;;;5056403;28;20060;-62
2022/11/04 15:33:45;;;;;;;24.17;12.95;;;22.90;52.70;;;;;;5057776;28;20045;-62
2022/11/04 15:36:18;;;;;;;19.73;12.57;;;22.90;52.80;;;;;;5056605;28;20049;-62
2022/11/04 15:38:58;;;;;;;19.23;12.35;;;22.80;52.80;;;;;;5057540;28;20061;-62
2022/11/04 15:44:22;;;;;;;18.73;10.55;;;22.80;52.90;;;;;;5057323;28;19927;-63
2022/11/04 15:46:52;;;;;;;15.88;11.73;;;22.80;53.00;;;;;;5057546;28;20132;-63
2022/11/04 15:49:21;;;;;;;;;;;22.80;53.10;;;;;;5058139;28;20052;-62
2022/11/04 15:51:48;;;;;;;20.67;11.43;;;22.70;53.00;;;;;;5057167;28;19932;-62
2022/11/04 15:54:20;;;;;;;20.42;11.25;;;22.70;53.10;;;;;;5057287;28;20059;-62
2022/11/04 15:56:51;;;;;;;19.42;11.75;;;22.70;53.10;;;;;;5057079;28;20060;-62
2022/11/04 15:59:23;;;;;;;17.23;11.55;;;22.70;53.10;;;;;;5055838;28;20049;-62
2022/11/04 16:01:52;;;;;;;19.90;11.73;;;22.70;53.10;;;;;;5056900;28;20053;-62
2022/11/04 16:04:25;;;;;;;20.63;11.30;;;22.70;53.20;;;;;;5057376;28;20053;-63
2022/11/04 16:07:20;;;;;;;17.63;11.52;;;22.70;53.20;;;;;;5056877;28;20055;-62
2022/11/04 16:09:52;;;;;;;17.50;10.88;;;22.60;53.20;;;;;;5056636;28;20053;-62
2022/11/04 16:12:34;;;;;;;17.52;10.18;;;22.60;53.20;;;;;;5056796;28;20049;-62